Time;durP1;ratioP1;P1;durP2;ratioP2;P2;SDS_P1;SDS_P2;PMS_P1;PMS_P2;Temp;Humidity;BMP_temperature;BMP_pressure;BME280_temperature;BME280_humidity;BME280_pressure;Samples;Min_cycle;Max_cycle;Signal;HPM_P1;HPM_P2
2023/09/04 00:01:12;;;;;;;5.33;1.63;;;22.00;99.90;;;;;;5077242;28;20555;-66
2023/09/04 00:03:39;;;;;;;4.50;1.27;;;22.10;99.90;;;;;;5070683;28;20188;-66
2023/09/04 00:06:07;;;;;;;6.77;1.70;;;22.80;99.90;;;;;;5071094;28;20172;-66
2023/09/04 00:08:35;;;;;;;6.83;1.23;;;23.20;99.90;;;;;;5070426;28;20250;-66
2023/09/04 00:11:02;;;;;;;7.30;1.23;;;23.30;99.90;;;;;;5070583;28;20180;-66
2023/09/04 00:13:30;;;;;;;6.20;1.63;;;23.50;99.90;;;;;;5073956;28;20191;-67
2023/09/04 00:15:58;;;;;;;5.57;1.23;;;23.90;99.90;;;;;;5074718;28;20563;-67
2023/09/04 00:18:25;;;;;;;5.07;1.47;;;24.30;99.90;;;;;;5075342;28;20195;-67
2023/09/04 00:20:53;;;;;;;4.87;1.30;;;24.40;99.90;;;;;;5074407;28;20278;-67
2023/09/04 00:23:21;;;;;;;5.37;1.40;;;23.60;99.90;;;;;;5109635;28;20276;-67
2023/09/04 00:25:48;;;;;;;3.43;1.17;;;24.10;99.90;;;;;;5120966;27;20678;-66
2023/09/04 00:28:18;;;;;;;4.67;1.40;;;24.60;99.90;;;;;;5127091;27;20202;-66
2023/09/04 00:30:46;;;;;;;4.60;1.50;;;25.00;99.90;;;;;;5115023;28;20181;-67
2023/09/04 00:33:14;;;;;;;3.27;1.13;;;25.40;99.90;;;;;;5115653;28;20179;-68
2023/09/04 00:35:41;;;;;;;5.00;1.30;;;25.30;99.90;;;;;;5115671;28;20178;-68
2023/09/04 00:38:09;;;;;;;6.17;1.30;;;25.40;99.90;;;;;;5115236;28;20624;-68
2023/09/04 00:40:37;;;;;;;4.27;1.60;;;24.60;99.90;;;;;;5115533;28;20175;-67
2023/09/04 00:43:05;;;;;;;5.10;1.67;;;24.60;99.90;;;;;;5115015;28;20182;-67
2023/09/04 00:45:35;;;;;;;5.53;1.30;;;24.60;99.90;;;;;;5115009;28;20242;-67
2023/09/04 00:48:06;;;;;;;5.33;1.50;;;24.10;99.90;;;;;;5115329;28;20655;-67
2023/09/04 00:50:34;;;;;;;2.53;1.03;;;24.10;99.90;;;;;;5115083;28;20188;-67
2023/09/04 00:53:05;;;;;;;5.03;1.93;;;23.70;99.90;;;;;;5114443;28;20643;-68
2023/09/04 00:55:33;;;;;;;6.73;1.40;;;24.40;99.90;;;;;;5115343;28;20203;-66
2023/09/04 00:58:01;;;;;;;3.93;1.30;;;24.50;99.90;;;;;;5115293;28;20699;-67
2023/09/04 01:00:29;;;;;;;4.27;1.23;;;24.20;99.90;;;;;;5096498;28;20179;-67
2023/09/04 01:03:02;;;;;;;7.80;1.40;;;23.90;99.90;;;;;;5114728;28;20217;-67
2023/09/04 01:06:03;;;;;;;3.07;1.10;;;25.10;99.90;;;;;;5114873;28;20210;-68
2023/09/04 01:08:31;;;;;;;5.60;1.20;;;25.70;99.90;;;;;;5114633;28;20580;-67
2023/09/04 01:11:21;;;;;;;5.67;1.40;;;25.60;99.90;;;;;;5114996;28;20596;-67
2023/09/04 01:13:53;;;;;;;5.23;1.30;;;25.50;99.90;;;;;;5094273;28;20176;-68
2023/09/04 01:16:22;;;;;;;4.47;1.73;;;25.20;99.90;;;;;;5094564;28;20228;-67
2023/09/04 01:18:53;;;;;;;5.27;1.37;;;25.50;99.90;;;;;;5112317;27;20171;-67
2023/09/04 01:21:20;;;;;;;3.90;1.20;;;24.90;99.90;;;;;;5126471;27;20186;-68
2023/09/04 01:23:48;;;;;;;3.33;1.13;;;25.20;99.90;;;;;;5114168;28;20187;-68
2023/09/04 01:26:21;;;;;;;4.73;1.53;;;25.20;99.90;;;;;;5114836;28;20202;-68
2023/09/04 01:29:10;;;;;;;4.60;1.30;;;25.30;99.90;;;;;;5114134;28;20213;-68
2023/09/04 01:31:44;;;;;;;5.60;1.53;;;25.70;99.90;;;;;;5080505;28;20190;-66
2023/09/04 01:34:16;;;;;;;4.97;1.30;;;25.30;99.90;;;;;;5114695;28;20201;-68
2023/09/04 01:36:46;;;;;;;6.30;2.20;;;26.10;99.90;;;;;;5096475;28;20170;-68
2023/09/04 01:39:14;;;;;;;5.80;1.60;;;26.30;99.90;;;;;;5114629;28;20711;-67
2023/09/04 01:41:42;;;;;;;6.10;1.70;;;26.40;99.90;;;;;;5114269;28;20210;-66
2023/09/04 01:44:10;;;;;;;4.30;1.20;;;26.30;99.90;;;;;;5113788;28;20747;-67
2023/09/04 01:46:37;;;;;;;6.03;1.60;;;26.40;98.60;;;;;;5124356;27;20177;-69
2023/09/04 01:49:05;;;;;;;3.43;1.90;;;26.30;99.90;;;;;;5117359;27;20225;-67
2023/09/04 01:51:33;;;;;;;3.70;1.37;;;25.90;99.90;;;;;;5113029;28;20640;-67
2023/09/04 01:54:00;;;;;;;5.90;1.20;;;25.80;99.90;;;;;;5113830;28;20700;-67
2023/09/04 01:56:28;;;;;;;6.97;1.43;;;26.10;99.90;;;;;;5113490;28;20175;-67
2023/09/04 01:58:56;;;;;;;3.13;1.00;;;25.90;99.90;;;;;;5113238;28;20223;-67
2023/09/04 02:01:23;;;;;;;7.10;1.43;;;26.00;99.80;;;;;;5094712;28;20194;-67
2023/09/04 02:03:58;;;;;;;7.73;3.87;;;26.60;99.90;;;;;;5113762;28;20209;-67
2023/09/04 02:06:28;;;;;;;6.47;2.07;;;27.10;96.80;;;;;;5113146;28;20209;-67
2023/09/04 02:08:56;;;;;;;3.80;1.77;;;26.70;98.10;;;;;;5113547;28;20217;-67
2023/09/04 02:11:24;;;;;;;4.83;1.53;;;26.30;99.90;;;;;;5094113;28;20637;-67
2023/09/04 02:13:51;;;;;;;4.07;1.33;;;26.40;99.90;;;;;;5112345;28;20182;-67
2023/09/04 02:16:19;;;;;;;3.77;1.20;;;26.50;99.90;;;;;;5113687;28;20214;-68
2023/09/04 02:18:47;;;;;;;9.37;5.50;;;26.70;99.90;;;;;;5127648;27;20208;-67
2023/09/04 02:21:15;;;;;;;5.03;1.90;;;27.10;99.50;;;;;;5133833;27;20185;-67
2023/09/04 02:23:43;;;;;;;7.70;3.33;;;26.80;99.90;;;;;;5113136;28;20225;-67
2023/09/04 02:26:10;;;;;;;5.50;3.23;;;27.20;96.70;;;;;;5113166;28;20182;-68
2023/09/04 02:28:38;;;;;;;7.00;2.03;;;27.20;96.70;;;;;;5092293;28;20218;-67
2023/09/04 02:31:06;;;;;;;4.33;1.30;;;27.40;97.80;;;;;;5093109;28;20507;-67
2023/09/04 02:33:35;;;;;;;3.87;1.10;;;27.40;95.40;;;;;;5109500;28;20182;-67
2023/09/04 02:36:03;;;;;;;3.97;0.93;;;27.00;95.70;;;;;;5091411;28;20311;-68
2023/09/04 02:38:30;;;;;;;6.37;1.63;;;26.70;97.00;;;;;;5113082;28;20217;-67
2023/09/04 02:40:58;;;;;;;6.30;2.20;;;26.40;99.70;;;;;;5113280;28;20224;-67
2023/09/04 02:43:26;;;;;;;5.13;1.50;;;26.20;99.90;;;;;;5112618;28;20643;-66
2023/09/04 02:45:53;;;;;;;2.47;1.30;;;26.30;99.90;;;;;;5112998;28;20194;-67
2023/09/04 02:51:43;;;;;;;4.17;1.10;;;26.90;99.90;;;;;;5112199;28;20185;-67
2023/09/04 02:54:11;;;;;;;5.00;1.40;;;27.40;99.60;;;;;;5113241;28;20178;-67
2023/09/04 02:56:39;;;;;;;5.00;1.10;;;27.70;95.60;;;;;;5112602;28;20267;-67
2023/09/04 02:59:06;;;;;;;6.27;1.70;;;27.30;98.90;;;;;;5112843;28;20326;-66
2023/09/04 03:01:34;;;;;;;4.07;1.53;;;27.40;96.70;;;;;;5112934;28;20170;-67
2023/09/04 03:04:03;;;;;;;9.97;1.60;;;27.30;96.00;;;;;;5112171;28;20186;-67
2023/09/04 03:06:32;;;;;;;4.27;1.20;;;27.30;97.10;;;;;;5112474;28;20699;-67
2023/09/04 03:09:00;;;;;;;3.93;1.10;;;27.10;97.90;;;;;;5112650;28;20210;-67
2023/09/04 03:11:28;;;;;;;4.33;1.67;;;27.30;98.50;;;;;;5112048;28;20223;-67
2023/09/04 03:13:55;;;;;;;4.50;2.10;;;27.50;95.90;;;;;;5112296;28;20192;-67
2023/09/04 03:16:23;;;;;;;4.23;1.33;;;27.40;96.30;;;;;;5112317;28;20180;-67
2023/09/04 03:18:51;;;;;;;5.47;1.27;;;27.10;94.90;;;;;;5112226;28;20261;-67
2023/09/04 03:21:18;;;;;;;5.83;1.00;;;27.00;98.00;;;;;;5112529;28;20178;-67
2023/09/04 03:23:50;;;;;;;4.33;1.60;;;27.20;97.70;;;;;;5112526;28;20666;-67
2023/09/04 03:26:19;;;;;;;8.80;1.33;;;27.30;96.60;;;;;;5093160;28;20606;-66
2023/09/04 03:28:47;;;;;;;4.13;1.13;;;26.80;97.70;;;;;;5112183;28;20215;-67
2023/09/04 03:31:15;;;;;;;5.63;1.40;;;26.90;97.10;;;;;;5112212;28;20281;-67
2023/09/04 03:33:43;;;;;;;5.37;1.60;;;26.70;98.10;;;;;;5112085;28;20179;-67
2023/09/04 03:36:11;;;;;;;5.37;1.50;;;26.60;99.90;;;;;;5111849;28;20249;-67
2023/09/04 03:38:39;;;;;;;8.17;1.53;;;26.60;99.90;;;;;;5112286;28;20171;-67
2023/09/04 03:41:07;;;;;;;7.53;1.10;;;26.60;99.90;;;;;;5113643;27;21718;-67
2023/09/04 03:43:37;;;;;;;6.80;1.53;;;26.80;99.90;;;;;;5119940;27;20202;-67
2023/09/04 03:46:05;;;;;;;4.93;1.40;;;26.90;99.90;;;;;;5112177;28;20248;-68
2023/09/04 03:51:56;;;;;;;9.87;1.63;;;26.30;99.90;;;;;;5068430;28;20730;-67
2023/09/04 03:54:24;;;;;;;5.47;1.63;;;25.80;99.90;;;;;;5069006;28;20196;-67
2023/09/04 03:56:52;;;;;;;5.83;1.47;;;25.90;99.90;;;;;;5056604;28;20202;-68
2023/09/04 03:59:19;;;;;;;7.20;1.63;;;26.10;99.90;;;;;;5094607;28;20197;-67
2023/09/04 04:01:47;;;;;;;6.20;1.80;;;25.80;99.90;;;;;;5099797;28;20261;-68
2023/09/04 04:04:15;;;;;;;3.83;1.40;;;25.70;99.90;;;;;;5094854;28;20180;-68
2023/09/04 04:06:43;;;;;;;5.00;1.30;;;25.70;99.90;;;;;;5081550;28;20231;-68
2023/09/04 04:09:11;;;;;;;9.43;1.90;;;25.70;99.90;;;;;;5099503;28;20279;-68
2023/09/04 04:11:39;;;;;;;7.23;1.63;;;25.50;99.90;;;;;;5091990;28;20194;-68
2023/09/04 04:14:07;;;;;;;5.07;1.40;;;25.50;99.90;;;;;;5089384;28;20649;-67
2023/09/04 04:16:36;;;;;;;7.20;1.47;;;25.50;99.90;;;;;;5089002;28;20236;-67
2023/09/04 04:19:04;;;;;;;7.43;1.60;;;25.70;99.90;;;;;;5071189;28;20726;-66
2023/09/04 04:21:32;;;;;;;8.07;1.83;;;25.90;99.90;;;;;;5068807;28;20572;-68
2023/09/04 04:23:59;;;;;;;6.13;1.40;;;25.60;99.90;;;;;;5069018;28;20252;-67
2023/09/04 04:26:27;;;;;;;6.30;1.50;;;25.30;99.90;;;;;;5076534;28;20187;-66
2023/09/04 04:28:54;;;;;;;6.17;1.60;;;25.20;99.90;;;;;;5101824;28;20272;-66
2023/09/04 04:31:23;;;;;;;8.10;2.00;;;25.20;99.90;;;;;;5111632;28;20178;-67
2023/09/04 04:33:50;;;;;;;6.93;1.63;;;25.00;99.90;;;;;;5111007;28;20199;-68
2023/09/04 04:36:18;;;;;;;7.37;2.00;;;25.00;99.90;;;;;;5111596;28;20587;-68
2023/09/04 04:38:46;;;;;;;9.27;1.87;;;24.70;99.90;;;;;;5111628;28;20189;-68
2023/09/04 04:41:13;;;;;;;6.67;1.27;;;24.50;99.90;;;;;;5114634;28;20177;-67
2023/09/04 04:43:41;;;;;;;3.50;1.80;;;24.30;99.90;;;;;;5119861;28;20205;-68
2023/09/04 04:46:12;;;;;;;10.20;2.20;;;24.40;99.90;;;;;;5122358;28;20182;-67
2023/09/04 04:48:40;;;;;;;7.27;1.77;;;24.30;99.90;;;;;;5114356;28;20264;-68
2023/09/04 04:51:07;;;;;;;6.50;1.80;;;24.30;99.90;;;;;;5121593;28;20585;-69
2023/09/04 04:53:36;;;;;;;9.73;1.97;;;24.30;99.90;;;;;;5120774;28;20224;-70
2023/09/04 04:56:04;;;;;;;7.93;2.03;;;24.00;99.90;;;;;;5120212;28;20641;-69
2023/09/04 04:58:31;;;;;;;6.00;2.07;;;24.00;99.90;;;;;;5120586;28;20261;-70
2023/09/04 05:00:59;;;;;;;10.57;1.77;;;24.10;99.90;;;;;;5115255;27;20632;-71
2023/09/04 05:03:26;;;;;;;5.87;1.93;;;24.00;99.90;;;;;;5125026;27;20178;-69
2023/09/04 05:05:54;;;;;;;11.07;2.20;;;24.00;99.90;;;;;;5125652;27;20664;-70
2023/09/04 05:08:22;;;;;;;7.00;1.63;;;23.90;99.90;;;;;;5123347;27;20587;-68
2023/09/04 05:11:03;;;;;;;8.93;2.30;;;23.70;99.90;;;;;;5122512;27;20185;-72
2023/09/04 05:13:32;;;;;;;7.50;1.93;;;23.50;99.90;;;;;;5118411;27;20268;-73
2023/09/04 05:16:06;;;;;;;8.30;2.00;;;23.40;99.90;;;;;;5128558;27;20217;-69
2023/09/04 05:18:34;;;;;;;7.37;1.70;;;23.20;99.90;;;;;;5125126;27;20198;-69
2023/09/04 05:21:06;;;;;;;6.83;1.53;;;23.10;99.90;;;;;;5125418;27;20202;-70
2023/09/04 05:23:34;;;;;;;8.90;2.13;;;23.00;99.90;;;;;;5121059;27;20279;-68
2023/09/04 05:26:02;;;;;;;7.30;1.73;;;23.00;99.90;;;;;;5118069;28;20178;-68
2023/09/04 05:28:30;;;;;;;8.47;2.10;;;23.10;99.90;;;;;;5116335;28;20356;-66
2023/09/04 05:31:05;;;;;;;6.10;1.70;;;23.00;99.90;;;;;;5115289;28;20546;-66
2023/09/04 05:33:33;;;;;;;7.70;1.80;;;23.00;99.90;;;;;;5096059;28;20638;-67
2023/09/04 05:36:01;;;;;;;4.00;2.17;;;22.80;99.90;;;;;;5115968;28;20182;-68
2023/09/04 05:38:28;;;;;;;6.37;1.80;;;22.90;99.90;;;;;;5115880;28;20189;-68
2023/09/04 05:40:58;;;;;;;6.33;1.83;;;22.90;99.90;;;;;;5116273;28;20170;-69
2023/09/04 05:43:26;;;;;;;7.00;2.10;;;22.80;99.90;;;;;;5116205;28;20256;-70
2023/09/04 05:45:53;;;;;;;11.80;1.90;;;22.70;99.90;;;;;;5115788;28;20178;-67
2023/09/04 05:48:21;;;;;;;5.70;2.00;;;22.50;99.90;;;;;;5116302;28;20655;-68
2023/09/04 05:50:49;;;;;;;5.07;1.77;;;22.40;99.90;;;;;;5115312;28;20186;-66
2023/09/04 05:53:18;;;;;;;4.40;1.80;;;22.40;99.90;;;;;;5115419;28;20186;-68
2023/09/04 05:56:06;;;;;;;12.60;2.30;;;22.40;99.90;;;;;;5115747;28;20175;-67
2023/09/04 05:58:34;;;;;;;8.37;1.80;;;22.40;99.90;;;;;;5115249;28;20675;-68
2023/09/04 06:01:02;;;;;;;9.73;2.20;;;22.30;99.90;;;;;;5115651;28;20167;-67
2023/09/04 06:03:30;;;;;;;10.23;2.23;;;22.30;99.90;;;;;;5115019;28;20223;-66
2023/09/04 06:05:57;;;;;;;7.53;2.10;;;22.20;99.90;;;;;;5096822;28;20674;-68
2023/09/04 06:08:25;;;;;;;8.97;1.90;;;22.30;99.90;;;;;;5131561;27;20627;-67
2023/09/04 06:10:54;;;;;;;8.90;1.70;;;22.20;99.90;;;;;;5125251;27;20651;-68
2023/09/04 06:13:22;;;;;;;10.10;2.07;;;22.00;99.90;;;;;;5114920;28;20182;-68
2023/09/04 06:15:53;;;;;;;10.77;2.13;;;22.00;99.90;;;;;;5114674;28;20181;-68
2023/09/04 06:18:21;;;;;;;9.27;2.40;;;22.10;99.90;;;;;;5114607;28;20179;-67
2023/09/04 06:20:49;;;;;;;7.37;1.90;;;22.10;99.90;;;;;;5112563;28;20186;-66
2023/09/04 06:23:18;;;;;;;8.70;2.10;;;21.90;99.90;;;;;;5099148;28;20219;-67
2023/09/04 06:25:46;;;;;;;9.10;1.70;;;21.80;99.90;;;;;;5112975;28;20261;-67
2023/09/04 06:28:14;;;;;;;8.87;2.73;;;21.70;99.90;;;;;;5113001;28;20206;-67
2023/09/04 06:30:43;;;;;;;6.20;2.10;;;21.70;99.90;;;;;;5109882;27;20217;-68
2023/09/04 06:33:10;;;;;;;9.87;1.97;;;21.60;99.90;;;;;;5110238;27;20209;-68
2023/09/04 06:35:38;;;;;;;10.10;2.77;;;21.50;99.90;;;;;;5105551;27;20194;-68
2023/09/04 06:38:06;;;;;;;10.37;2.00;;;21.40;99.90;;;;;;5094440;28;20198;-68
2023/09/04 06:40:33;;;;;;;5.43;2.10;;;21.30;99.90;;;;;;5112867;28;20183;-67
2023/09/04 06:43:01;;;;;;;7.20;2.20;;;21.20;99.90;;;;;;5112695;28;20189;-66
2023/09/04 06:45:29;;;;;;;8.53;2.10;;;21.00;99.90;;;;;;5111865;28;20315;-67
2023/09/04 06:47:56;;;;;;;10.43;2.17;;;20.80;99.90;;;;;;5113003;28;20202;-67
2023/09/04 06:50:24;;;;;;;11.27;2.40;;;20.80;99.90;;;;;;5112853;28;20179;-68
2023/09/04 06:52:51;;;;;;;8.17;2.37;;;20.80;99.90;;;;;;5112001;28;20196;-67
2023/09/04 06:55:19;;;;;;;9.53;2.10;;;20.90;99.90;;;;;;5112148;28;20179;-68
2023/09/04 06:57:47;;;;;;;16.43;3.00;;;20.80;99.90;;;;;;5112711;28;20171;-68
2023/09/04 07:00:16;;;;;;;9.33;2.53;;;20.80;99.90;;;;;;5112234;28;20253;-66
2023/09/04 07:02:43;;;;;;;6.57;2.70;;;20.90;99.90;;;;;;5112404;28;20196;-65
2023/09/04 07:05:11;;;;;;;15.47;2.77;;;20.80;99.90;;;;;;5112142;28;20207;-67
2023/09/04 07:07:39;;;;;;;6.47;2.00;;;20.80;99.90;;;;;;5112070;28;20186;-68
2023/09/04 07:10:08;;;;;;;10.70;3.03;;;20.70;99.90;;;;;;5112243;28;20243;-68
2023/09/04 07:12:40;;;;;;;10.57;2.30;;;20.70;99.90;;;;;;5112413;28;20259;-68
2023/09/04 07:15:08;;;;;;;8.93;2.50;;;20.70;99.90;;;;;;5111567;28;20381;-68
2023/09/04 07:17:36;;;;;;;9.13;2.30;;;20.50;99.90;;;;;;5112296;28;20181;-71
2023/09/04 07:20:04;;;;;;;7.93;2.47;;;20.30;99.90;;;;;;5112326;28;20174;-68
2023/09/04 07:22:32;;;;;;;9.40;2.70;;;20.20;99.90;;;;;;5111269;28;20604;-68
2023/09/04 07:25:14;;;;;;;8.40;2.33;;;20.10;99.90;;;;;;5111913;28;20183;-68
2023/09/04 07:27:42;;;;;;;6.90;2.30;;;20.00;99.90;;;;;;5106302;28;20190;-68
2023/09/04 07:30:11;;;;;;;12.10;2.80;;;20.00;99.90;;;;;;5111598;28;20205;-67
2023/09/04 07:32:39;;;;;;;13.03;2.97;;;19.90;99.90;;;;;;5111728;28;20169;-67
2023/09/04 07:35:08;;;;;;;7.87;2.60;;;19.80;99.90;;;;;;5110939;28;20182;-68
2023/09/04 07:37:36;;;;;;;10.87;2.80;;;19.60;99.90;;;;;;5111485;28;20181;-66
2023/09/04 07:40:05;;;;;;;8.17;2.50;;;19.50;99.90;;;;;;5112043;28;20181;-66
2023/09/04 07:42:32;;;;;;;7.37;2.80;;;19.40;99.90;;;;;;5111401;28;20201;-70
2023/09/04 07:45:00;;;;;;;9.67;2.70;;;19.30;99.90;;;;;;5111107;28;20556;-68
2023/09/04 07:47:28;;;;;;;10.20;2.40;;;19.20;99.90;;;;;;5111766;28;20178;-66
2023/09/04 07:49:55;;;;;;;12.30;2.90;;;19.10;99.90;;;;;;5111752;28;20217;-68
2023/09/04 07:52:23;;;;;;;7.90;2.13;;;19.10;99.90;;;;;;5110961;28;20190;-66
2023/09/04 07:54:51;;;;;;;8.63;2.73;;;19.10;99.90;;;;;;5110483;28;20677;-68
2023/09/04 07:57:19;;;;;;;8.87;2.03;;;19.00;99.90;;;;;;5111361;28;20183;-66
2023/09/04 07:59:47;;;;;;;11.77;2.87;;;19.00;99.90;;;;;;5111443;28;20578;-69
2023/09/04 08:02:16;;;;;;;7.37;2.50;;;18.90;99.90;;;;;;5111293;28;20631;-66
2023/09/04 08:04:43;;;;;;;10.03;2.10;;;18.80;99.90;;;;;;5111351;28;20188;-68
2023/09/04 08:07:11;;;;;;;9.33;2.47;;;18.60;99.90;;;;;;5111195;28;20270;-67
2023/09/04 08:09:39;;;;;;;9.60;2.47;;;18.60;99.90;;;;;;5093187;28;20218;-70
2023/09/04 08:12:06;;;;;;;7.27;2.60;;;18.50;99.90;;;;;;5111525;28;20171;-68
2023/09/04 08:14:36;;;;;;;10.13;2.80;;;18.50;99.90;;;;;;5110807;28;20209;-67
2023/09/04 08:17:06;;;;;;;14.90;2.70;;;18.50;99.90;;;;;;5094127;28;20174;-69
2023/09/04 08:19:34;;;;;;;10.60;2.83;;;18.50;99.90;;;;;;5111303;28;20270;-70
2023/09/04 08:22:09;;;;;;;11.37;3.23;;;18.40;99.90;;;;;;5111002;28;20676;-69
2023/09/04 08:24:37;;;;;;;14.03;3.07;;;18.40;99.90;;;;;;5111454;28;20273;-68
2023/09/04 08:27:04;;;;;;;9.60;2.93;;;18.30;99.90;;;;;;5111668;28;20174;-71
2023/09/04 08:29:32;;;;;;;8.93;3.20;;;18.30;99.90;;;;;;5110784;28;20216;-69
2023/09/04 08:32:00;;;;;;;7.30;2.40;;;18.10;99.90;;;;;;5111235;28;20248;-70
2023/09/04 08:34:28;;;;;;;10.67;2.73;;;18.10;99.90;;;;;;5114262;28;20178;-68
2023/09/04 08:36:55;;;;;;;10.20;2.83;;;18.00;99.90;;;;;;5115301;28;20231;-69
2023/09/04 08:39:23;;;;;;;10.33;2.83;;;17.90;99.90;;;;;;5115232;28;20669;-68
2023/09/04 08:41:52;;;;;;;13.47;6.10;;;17.80;99.90;;;;;;5115235;28;20664;-68
2023/09/04 08:44:20;;;;;;;8.80;3.27;;;17.80;99.90;;;;;;5115283;28;20674;-70
2023/09/04 08:46:49;;;;;;;7.37;3.27;;;17.70;99.90;;;;;;5115385;28;20182;-69
2023/09/04 08:49:21;;;;;;;15.10;3.47;;;17.70;99.90;;;;;;5114726;28;20213;-69
2023/09/04 08:51:49;;;;;;;9.00;3.13;;;17.60;99.90;;;;;;5115277;28;20278;-69
2023/09/04 08:54:17;;;;;;;7.73;3.23;;;17.60;99.90;;;;;;5115007;28;20186;-70
2023/09/04 08:56:44;;;;;;;10.53;3.87;;;17.50;99.90;;;;;;5115003;28;20202;-69
2023/09/04 08:59:12;;;;;;;9.27;5.63;;;17.40;99.90;;;;;;5114530;28;20189;-70
2023/09/04 09:01:41;;;;;;;19.53;6.43;;;17.40;99.90;;;;;;5114933;28;20312;-69
2023/09/04 09:04:10;;;;;;;12.47;4.53;;;17.30;99.90;;;;;;5114670;28;20179;-69
2023/09/04 09:06:38;;;;;;;12.77;3.77;;;17.20;99.90;;;;;;5115119;28;20241;-70
2023/09/04 09:09:09;;;;;;;9.25;3.05;;;17.20;99.90;;;;;;5114584;28;20225;-71
2023/09/04 09:11:38;;;;;;;11.47;3.47;;;17.10;99.90;;;;;;5114346;28;20178;-70
2023/09/04 09:14:05;;;;;;;13.90;3.07;;;17.10;99.90;;;;;;5114880;28;20164;-66
2023/09/04 09:16:36;;;;;;;10.80;3.00;;;17.10;99.90;;;;;;5114266;28;20585;-68
2023/09/04 09:19:04;;;;;;;9.27;2.73;;;16.90;99.90;;;;;;5114484;28;20696;-67
2023/09/04 09:21:33;;;;;;;8.47;3.47;;;17.00;99.90;;;;;;5114382;28;20179;-68
2023/09/04 09:24:20;;;;;;;9.37;3.00;;;16.90;99.90;;;;;;5114682;28;20554;-66
2023/09/04 09:26:51;;;;;;;11.23;3.27;;;16.80;99.90;;;;;;5116041;28;20269;-67
2023/09/04 09:29:19;;;;;;;10.70;2.90;;;16.70;99.90;;;;;;5115949;28;20218;-68
2023/09/04 09:31:47;;;;;;;9.53;2.53;;;16.70;99.90;;;;;;5116280;28;20174;-67
2023/09/04 09:34:16;;;;;;;9.50;2.80;;;16.70;99.90;;;;;;5116513;28;20681;-67
2023/09/04 09:36:44;;;;;;;9.37;3.33;;;16.60;99.90;;;;;;5116312;28;20265;-69
2023/09/04 09:39:16;;;;;;;11.23;2.77;;;16.60;99.90;;;;;;5116637;28;20724;-66
2023/09/04 09:41:45;;;;;;;9.27;2.97;;;16.50;99.90;;;;;;5116301;28;20177;-65
2023/09/04 09:44:15;;;;;;;14.33;3.27;;;16.40;99.90;;;;;;5116521;28;20546;-68
2023/09/04 09:46:47;;;;;;;10.27;3.20;;;16.40;99.90;;;;;;5098564;28;20170;-67
2023/09/04 09:49:15;;;;;;;11.40;3.53;;;16.30;99.90;;;;;;5116155;28;20575;-69
2023/09/04 09:51:46;;;;;;;12.37;3.00;;;16.30;99.90;;;;;;5116110;28;20201;-69
2023/09/04 09:54:14;;;;;;;11.87;3.27;;;16.30;99.90;;;;;;5116218;28;20534;-65
2023/09/04 09:56:43;;;;;;;10.10;2.80;;;16.20;99.90;;;;;;5115821;28;20230;-68
2023/09/04 09:59:13;;;;;;;14.57;3.23;;;16.20;99.90;;;;;;5097532;28;20171;-68
2023/09/04 10:01:42;;;;;;;8.83;3.80;;;16.20;99.90;;;;;;5097818;28;20205;-67
2023/09/04 10:04:10;;;;;;;8.50;3.63;;;16.20;99.90;;;;;;5115950;28;20256;-67
2023/09/04 10:06:42;;;;;;;11.17;3.23;;;16.10;99.90;;;;;;5115740;28;20636;-69
2023/09/04 10:09:12;;;;;;;12.97;3.53;;;16.10;99.90;;;;;;5115908;28;20248;-70
2023/09/04 10:11:44;;;;;;;10.63;3.07;;;16.00;99.90;;;;;;5115695;28;20182;-68
2023/09/04 10:14:26;;;;;;;12.07;3.73;;;15.90;99.90;;;;;;5115685;28;20397;-69
2023/09/04 10:17:04;;;;;;;6.83;3.40;;;15.90;99.90;;;;;;5115790;28;20636;-69
2023/09/04 10:19:35;;;;;;;10.20;3.33;;;15.90;99.90;;;;;;5115403;28;20220;-67
2023/09/04 10:22:15;;;;;;;8.70;3.53;;;16.00;99.90;;;;;;5115421;28;20214;-68
2023/09/04 10:25:09;;;;;;;9.43;3.60;;;16.00;99.90;;;;;;5115842;28;20223;-69
2023/09/04 10:27:50;;;;;;;10.23;4.20;;;15.90;99.90;;;;;;5106205;28;20243;-68
2023/09/04 10:30:25;;;;;;;13.60;4.23;;;15.90;99.90;;;;;;5115218;28;20217;-68
2023/09/04 10:32:56;;;;;;;18.17;4.70;;;15.80;99.90;;;;;;5115218;28;20177;-67
2023/09/04 10:35:24;;;;;;;7.30;3.80;;;15.70;99.90;;;;;;5115389;28;20277;-67
2023/09/04 10:37:52;;;;;;;11.33;3.60;;;15.70;99.90;;;;;;5115674;28;20265;-68
2023/09/04 10:40:21;;;;;;;14.87;3.93;;;15.70;99.90;;;;;;5115176;28;20175;-66
2023/09/04 10:42:49;;;;;;;8.03;3.40;;;15.60;99.90;;;;;;5115035;28;20658;-66
2023/09/04 10:45:20;;;;;;;18.47;3.90;;;15.60;99.90;;;;;;5115074;28;20300;-68
2023/09/04 10:47:52;;;;;;;9.10;4.00;;;15.60;99.90;;;;;;5115162;28;20167;-66
2023/09/04 10:50:29;;;;;;;13.37;4.17;;;15.60;99.90;;;;;;5114650;28;20698;-68
2023/09/04 10:53:02;;;;;;;12.27;4.20;;;15.60;99.90;;;;;;5115257;28;20639;-66
2023/09/04 10:55:31;;;;;;;10.43;3.47;;;15.50;99.90;;;;;;5114717;28;20231;-66
2023/09/04 10:58:07;;;;;;;9.63;3.20;;;15.50;99.90;;;;;;5114456;28;20169;-67
2023/09/04 11:00:36;;;;;;;12.73;3.57;;;15.40;99.90;;;;;;5096648;28;20185;-66
2023/09/04 11:03:19;;;;;;;9.87;3.67;;;15.30;99.90;;;;;;5114697;28;20170;-66
2023/09/04 11:06:12;;;;;;;17.27;4.60;;;15.30;99.90;;;;;;5115242;28;20167;-67
2023/09/04 11:08:51;;;;;;;16.17;3.90;;;15.30;99.90;;;;;;5114375;28;20217;-67
2023/09/04 11:11:28;;;;;;;9.30;3.53;;;15.20;99.90;;;;;;5113512;28;20269;-65
2023/09/04 11:14:01;;;;;;;7.93;3.50;;;15.20;99.90;;;;;;5114053;28;20370;-66
2023/09/04 11:16:44;;;;;;;13.40;4.23;;;15.10;99.90;;;;;;5113924;28;20635;-68
2023/09/04 11:19:17;;;;;;;10.27;3.60;;;15.00;99.90;;;;;;5113835;28;20186;-65
2023/09/04 11:21:46;;;;;;;14.93;4.40;;;15.10;99.90;;;;;;5113534;28;20221;-65
2023/09/04 11:24:19;;;;;;;11.77;4.40;;;15.10;99.90;;;;;;5112623;28;20383;-66
2023/09/04 11:26:46;;;;;;;13.97;3.73;;;15.00;99.90;;;;;;5112803;28;20238;-66
2023/09/04 11:29:19;;;;;;;9.70;3.67;;;15.00;99.90;;;;;;5112844;28;20215;-67
2023/09/04 11:31:46;;;;;;;10.77;4.37;;;14.90;99.90;;;;;;5112658;28;20535;-68
2023/09/04 11:34:23;;;;;;;9.97;3.77;;;14.90;99.90;;;;;;5112446;28;20324;-71
2023/09/04 11:36:51;;;;;;;13.47;4.27;;;14.90;99.90;;;;;;5112834;28;20185;-66
2023/09/04 11:39:19;;;;;;;9.60;3.60;;;14.70;99.90;;;;;;5112878;28;20537;-67
2023/09/04 11:41:49;;;;;;;12.07;4.00;;;14.70;99.90;;;;;;5112595;28;20205;-67
2023/09/04 11:44:17;;;;;;;12.13;4.60;;;14.70;99.90;;;;;;5095089;28;20195;-67
2023/09/04 11:46:45;;;;;;;11.00;4.33;;;14.70;99.90;;;;;;5112690;28;20170;-68
2023/09/04 11:49:13;;;;;;;11.77;4.00;;;14.60;99.90;;;;;;5112738;28;20206;-67
2023/09/04 11:51:40;;;;;;;15.03;4.03;;;14.60;99.90;;;;;;5112673;28;20198;-69
2023/09/04 11:54:08;;;;;;;11.37;3.93;;;14.60;99.90;;;;;;5112727;28;20171;-67
2023/09/04 11:56:37;;;;;;;13.53;4.00;;;14.70;99.90;;;;;;5112730;28;20227;-68
2023/09/04 11:59:05;;;;;;;9.60;4.07;;;14.60;99.90;;;;;;5112303;28;20166;-69
2023/09/04 12:01:32;;;;;;;13.33;4.33;;;14.50;99.90;;;;;;5112165;28;20174;-67
2023/09/04 12:04:02;;;;;;;14.40;4.60;;;14.40;99.90;;;;;;5112955;28;20201;-67
2023/09/04 12:06:29;;;;;;;12.80;4.83;;;14.40;99.90;;;;;;5112411;28;20648;-67
2023/09/04 12:08:58;;;;;;;11.57;4.10;;;14.40;99.90;;;;;;5111314;28;20206;-69
2023/09/04 12:11:28;;;;;;;17.67;4.77;;;14.40;99.90;;;;;;5112750;28;20177;-69
2023/09/04 12:13:56;;;;;;;7.23;3.83;;;14.40;99.90;;;;;;5112595;28;20639;-67
2023/09/04 12:16:24;;;;;;;11.53;4.77;;;14.40;99.90;;;;;;5112609;28;20210;-66
2023/09/04 12:18:52;;;;;;;9.00;4.10;;;14.30;99.90;;;;;;5112605;28;20570;-68
2023/09/04 12:21:25;;;;;;;7.68;4.62;;;14.20;99.90;;;;;;5040993;28;3864744;-67
2023/09/04 12:23:54;;;;;;;11.00;4.87;;;14.10;99.90;;;;;;5112931;28;20193;-67
2023/09/04 12:26:21;;;;;;;17.10;4.50;;;14.10;99.90;;;;;;5113118;28;20652;-67
2023/09/04 12:28:51;;;;;;;13.30;4.40;;;14.10;99.90;;;;;;5113087;28;20271;-68
2023/09/04 12:31:23;;;;;;;10.03;4.93;;;14.10;99.90;;;;;;5112834;28;20538;-70
2023/09/04 12:33:52;;;;;;;12.67;5.27;;;14.00;99.90;;;;;;5113150;28;20197;-66
2023/09/04 12:36:21;;;;;;;11.40;5.07;;;14.00;99.90;;;;;;5112883;28;20171;-68
2023/09/04 12:38:52;;;;;;;10.40;4.20;;;13.90;99.90;;;;;;5113404;28;20295;-72
2023/09/04 12:41:20;;;;;;;8.77;4.43;;;14.00;99.90;;;;;;5112716;28;20174;-69
2023/09/04 12:43:47;;;;;;;13.33;5.03;;;14.00;99.90;;;;;;5094610;28;20186;-65
2023/09/04 12:46:14;;;;;;;12.33;5.67;;;13.90;99.90;;;;;;5112759;28;20202;-69
2023/09/04 12:48:42;;;;;;;12.03;4.70;;;13.90;99.90;;;;;;5095181;28;20198;-72
2023/09/04 12:51:10;;;;;;;14.60;5.97;;;13.90;99.90;;;;;;5112710;28;20732;-71
2023/09/04 12:53:37;;;;;;;9.97;4.50;;;13.80;99.90;;;;;;5113130;28;20171;-65
2023/09/04 12:56:05;;;;;;;13.67;5.13;;;13.80;99.90;;;;;;5113166;28;20638;-70
2023/09/04 12:58:34;;;;;;;12.60;4.73;;;13.70;99.90;;;;;;5112709;28;20174;-67
2023/09/04 13:01:02;;;;;;;13.43;4.63;;;13.70;99.90;;;;;;5112804;28;20238;-69